Latest Weather Observations for Bushy Park

IDT60801

Issued at 1:02 pm EST Thursday 25 May 2017 (issued every 30 minutes, with the page automatically refreshed every 10 minutes)

About weather observations | Map of weather stations | Latest weather observations for TAS | Other Formats
Station Details ID: 095003 Name: BUSHY PARK (BUSHY PARK ESTATES) Lat: -42.71 Lon: 146.90 Height: 27.0 m
Data from the previous 72 hours. | See also: Recent months at Bushy Park
Date/Time
EST
Temp
°C
App
Temp
°C
Dew
Point
°C
Rel
Hum
%
Delta-T
°C
Wind Press
QNH
hPa
Press
MSL
hPa
Rain since
9am
mm
Dir  Spd
km/h
Gust
km/h
Spd
kts
Gust
kts
25/01:00pm 11.1 9.4 7.6 79 1.7 ENE 6 9 3 5 - - 0.0
25/12:30pm 10.6 10.1 7.9 83 1.3 CALM 0 0 0 0 - - 0.0
25/12:00pm 9.8 9.2 7.5 85 1.1 CALM 0 0 0 0 - - 0.0
25/11:30am 9.4 8.5 7.7 89 0.8 S 2 7 1 4 - - 0.0
25/11:00am 9.0 8.4 7.3 89 0.8 CALM 0 0 0 0 - - 0.0
25/10:30am 8.6 7.9 7.1 90 0.7 CALM 0 0 0 0 - - 0.0
25/10:00am 8.1 7.4 7.0 93 0.5 CALM 0 0 0 0 - - 0.0
25/09:30am 7.6 6.1 6.7 94 0.4 N 4 7 2 4 - - 0.0
25/09:00am 7.3 5.1 6.4 94 0.4 NW 7 7 4 4 - - 0.0
25/08:30am 6.9 6.0 6.2 95 0.3 CALM 0 4 0 2 - - 0.0
25/08:00am 6.9 4.9 6.2 95 0.3 WNW 6 7 3 4 - - 0.0
25/07:30am 7.1 6.2 6.2 94 0.4 CALM 0 4 0 2 - - 0.0
25/07:00am 7.4 6.6 6.3 93 0.5 CALM 0 0 0 0 - - 0.0
25/06:30am 7.1 5.8 6.2 94 0.4 S 2 7 1 4 - - 0.0
25/06:00am 7.0 6.1 6.1 94 0.4 CALM 0 9 0 5 - - 0.0
25/05:30am 7.2 4.6 6.1 93 0.5 NW 9 11 5 6 - - 0.0
25/05:00am 7.6 5.5 6.5 93 0.5 N 7 11 4 6 - - 0.0
25/04:00am 8.0 5.9 6.7 91 0.6 NNW 7 9 4 5 - - 0.0
25/03:30am 7.7 5.6 6.6 93 0.5 WSW 7 9 4 5 - - 0.0
25/03:00am 7.9 7.2 6.8 93 0.5 CALM 0 0 0 0 - - 0.0
25/02:30am 8.4 7.6 6.7 89 0.8 CALM 0 0 0 0 - - 0.0
25/02:00am 8.6 7.5 6.9 89 0.8 ENE 2 7 1 4 - - 0.0
25/01:30am 8.7 8.0 7.0 89 0.8 CALM 0 0 0 0 - - 0.0
25/01:00am 8.9 8.3 7.2 89 0.8 CALM 0 0 0 0 - - 0.0
25/12:30am 9.2 7.3 6.9 85 1.1 NNW 6 9 3 5 - - 0.0
25/12:00am 8.9 7.7 6.5 85 1.1 NE 2 7 1 4 - - 0.0
 
Date/Time
EST
Temp
°C
App
Temp
°C
Dew
Point
°C
Rel
Hum
%
Delta-T
°C
Wind Press
QNH
hPa
Press
MSL
hPa
Rain since
9am
mm
Dir  Spd
km/h
Gust
km/h
Spd
kts
Gust
kts
24/11:30pm 9.2 7.2 6.9 85 1.1 NNW 7 11 4 6 - - 0.0
24/11:00pm 9.4 7.6 7.1 85 1.1 NNE 6 11 3 6 - - 0.0
24/10:30pm 10.1 6.9 6.7 79 1.6 NW 13 20 7 11 - - 0.0
24/10:00pm 10.5 7.8 5.8 72 2.2 NW 9 13 5 7 - - 0.0
24/09:30pm 10.0 8.7 6.2 77 1.8 E 2 7 1 4 - - 0.0
24/09:00pm 10.3 8.2 6.0 75 2.0 WSW 6 7 3 4 - - 0.0
24/08:30pm 11.0 7.9 5.6 69 2.5 NNW 11 15 6 8 - - 0.0
24/08:00pm 11.4 7.9 5.4 66 2.8 N 13 20 7 11 - - 0.0
24/07:30pm 11.2 7.2 5.1 66 2.8 N 15 26 8 14 - - 0.0
24/07:00pm 11.4 7.8 4.9 64 3.0 NW 13 24 7 13 - - 0.0
24/06:30pm 11.6 7.1 4.4 61 3.3 NW 17 30 9 16 - - 0.0
24/06:00pm 11.7 6.9 4.5 61 3.3 WNW 19 33 10 18 - - 0.0
24/05:30pm 11.6 7.1 4.4 61 3.3 WNW 17 28 9 15 - - 0.0
24/05:00pm 11.9 6.9 3.7 57 3.7 WNW 19 30 10 16 - - 0.0
24/04:30pm 11.4 6.7 5.1 65 2.9 WSW 19 37 10 20 - - 0.0
24/04:00pm 12.0 7.7 3.5 56 3.8 NW 15 26 8 14 - - 0.0
24/03:30pm 12.3 7.2 3.9 56 3.8 WNW 20 35 11 19 - - 0.0
24/03:00pm 13.5 9.5 5.0 56 4.0 WNW 15 32 8 17 - - 0.0
24/02:30pm 12.9 8.1 4.4 56 3.9 W 19 35 10 19 - - 0.0
24/02:00pm 13.2 8.3 4.0 53 4.2 WNW 19 33 10 18 - - 0.0
24/01:30pm 13.3 10.4 6.5 63 3.3 WSW 11 28 6 15 - - 0.0
24/01:00pm 13.6 10.1 5.4 57 3.8 W 13 24 7 13 - - 0.0
24/12:30pm 13.2 8.1 4.0 53 4.2 NW 20 33 11 18 - - 0.0
24/12:00pm 13.3 9.5 5.7 60 3.6 WNW 15 24 8 13 - - 0.0
24/11:30am 12.1 7.2 5.2 62 3.2 WNW 20 35 11 19 - - 0.0
24/11:00am 11.7 10.1 8.7 82 1.5 NNW 7 11 4 6 - - 0.0
24/10:30am 11.1 8.7 8.5 84 1.3 N 11 15 6 8 - - 0.0
24/10:00am 9.0 7.1 7.5 90 0.7 NNE 7 11 4 6 - - 0.0
24/09:30am 9.3 7.8 8.3 93 0.5 N 6 7 3 4 - - 0.0
24/09:00am 8.5 8.1 8.1 97 0.2 CALM 0 7 0 4 - - 3.0
24/08:30am 8.2 6.0 7.8 97 0.2 NNW 9 9 5 5 - - 3.0
24/08:00am 7.8 5.9 7.4 97 0.2 NW 7 9 4 5 - - 3.0
24/07:30am 8.0 6.2 7.8 99 0.1 N 7 9 4 5 - - 3.0
24/07:00am 8.2 6.4 8.0 99 0.1 N 7 9 4 5 - - 2.8
24/06:30am 8.1 6.5 7.9 99 0.1 WNW 6 7 3 4 - - 2.4
24/06:00am 8.3 7.9 8.1 99 0.1 CALM 0 0 0 0 - - 2.2
24/05:30am 8.2 7.4 8.0 99 0.1 N 2 7 1 4 - - 2.2
24/05:00am 8.3 7.4 7.9 97 0.2 NNE 2 7 1 4 - - 2.2
24/04:30am 8.2 6.4 8.0 99 0.1 NNE 7 7 4 4 - - 2.2
24/04:00am 8.4 6.7 8.2 99 0.1 N 7 7 4 4 - - 2.2
24/03:30am 8.5 7.7 8.1 97 0.2 NNE 2 7 1 4 - - 2.2
24/03:00am 8.6 7.1 8.4 99 0.1 N 6 7 3 4 - - 2.2
24/02:30am 8.9 7.5 8.7 99 0.1 N 6 7 3 4 - - 2.2
24/02:00am 8.9 8.6 8.5 97 0.2 CALM 0 0 0 0 - - 2.2
24/01:30am 9.0 7.0 8.8 99 0.1 NE 9 9 5 5 - - 2.2
24/01:00am 9.3 9.1 9.1 99 0.1 CALM 0 0 0 0 - - 2.2
24/12:30am 9.3 9.1 8.9 97 0.2 CALM 0 0 0 0 - - 2.2
24/12:00am 9.4 9.2 9.2 99 0.1 CALM 0 0 0 0 - - 2.2
 
Date/Time
EST
Temp
°C
App
Temp
°C
Dew
Point
°C
Rel
Hum
%
Delta-T
°C
Wind Press
QNH
hPa
Press
MSL
hPa
Rain since
9am
mm
Dir  Spd
km/h
Gust
km/h
Spd
kts
Gust
kts
23/11:30pm 9.4 9.2 9.0 97 0.2 CALM 0 0 0 0 - - 2.2
23/11:00pm 9.2 7.7 9.0 99 0.1 SW 7 11 4 6 - - 2.2
23/10:30pm 9.3 7.9 8.9 97 0.2 NE 6 9 3 5 - - 2.2
23/10:00pm 9.0 8.7 8.8 99 0.1 CALM 0 0 0 0 - - 2.2
23/09:30pm 8.5 8.1 8.3 99 0.1 CALM 0 0 0 0 - - 2.2
23/09:00pm 9.4 9.2 9.0 97 0.2 CALM 0 0 0 0 - - 2.0
23/08:30pm 10.3 9.6 9.9 97 0.2 E 4 7 2 4 - - 2.0
23/08:00pm 11.1 11.3 10.7 97 0.2 CALM 0 0 0 0 - - 2.0
23/07:30pm 11.4 11.3 10.8 96 0.3 SE 2 9 1 5 - - 1.8
23/07:00pm 11.2 10.3 10.6 96 0.3 SSE 6 7 3 4 - - 1.2
23/06:30pm 11.4 10.4 11.0 97 0.2 S 7 9 4 5 - - 1.2
23/06:00pm 11.8 12.2 11.4 97 0.2 CALM 0 0 0 0 - - 1.2
23/05:30pm 12.0 12.4 11.4 96 0.3 CALM 0 6 0 3 - - 1.2
23/05:00pm 12.8 12.3 12.1 95 0.4 WNW 6 9 3 5 - - 1.2
23/04:30pm 13.1 12.6 12.2 94 0.5 N 6 9 3 5 - - 1.2
23/04:00pm 13.6 14.4 12.7 94 0.5 CALM 0 0 0 0 - - 1.2
23/03:30pm 13.4 13.0 12.3 93 0.6 N 6 7 3 4 - - 1.2
23/03:00pm 14.0 13.2 11.6 85 1.3 W 7 13 4 7 - - 0.6
23/02:30pm 14.1 14.3 11.7 85 1.3 SE 2 6 1 3 - - 0.6
23/02:00pm 13.7 14.0 12.2 91 0.8 WNW 2 7 1 4 - - 0.6
23/01:30pm 13.0 12.7 11.5 91 0.8 NNE 4 7 2 4 - - 0.6
23/01:00pm 12.9 12.3 11.6 92 0.7 S 6 9 3 5 - - 0.2
23/12:30pm 12.9 13.2 11.0 88 1.0 CALM 0 0 0 0 - - 0.2
23/12:00pm 12.6 11.6 10.3 86 1.2 N 6 9 3 5 - - 0.0
23/11:30am 12.5 12.6 10.2 86 1.2 CALM 0 0 0 0 - - 0.0
23/11:00am 11.6 11.7 10.2 91 0.7 CALM 0 0 0 0 - - 0.0
23/10:30am 11.2 9.9 10.0 92 0.6 N 7 9 4 5 - - 0.0
23/10:00am 11.3 10.6 9.9 91 0.7 W 4 7 2 4 - - 0.0
23/09:30am 9.6 9.4 9.0 96 0.3 CALM 0 0 0 0 - - 0.0
23/09:00am 8.9 8.2 8.5 97 0.2 ESE 2 7 1 4 - - 0.8
23/08:30am 8.6 6.5 8.2 97 0.2 NW 9 11 5 6 - - 0.8
23/08:00am 8.2 6.4 7.8 97 0.2 SW 7 9 4 5 - - 0.8
23/07:30am 8.4 6.2 8.0 97 0.2 S 9 11 5 6 - - 0.8
23/07:00am 8.3 6.6 7.7 96 0.3 SSW 6 9 3 5 - - 0.8
23/06:30am 8.1 7.1 7.5 96 0.3 NE 2 7 1 4 - - 0.2
23/06:00am 7.9 6.0 7.5 97 0.2 W 7 11 4 6 - - 0.0
23/05:30am 7.5 6.7 6.6 94 0.4 CALM 0 0 0 0 - - 0.0
23/05:00am 7.9 6.9 7.5 97 0.2 NNE 2 6 1 3 - - 0.0
23/04:30am 8.0 6.2 7.2 95 0.4 NNE 6 7 3 4 - - 0.0
23/04:00am 7.6 5.6 7.0 96 0.3 NNW 7 7 4 4 - - 0.0
23/03:30am 8.2 6.5 7.6 96 0.3 WSW 6 7 3 4 - - 0.0
23/03:00am 8.3 6.4 7.7 96 0.3 N 7 9 4 5 - - 0.0
23/02:30am 8.4 7.9 7.8 96 0.3 CALM 0 0 0 0 - - 0.0
23/02:00am 8.5 8.0 7.7 95 0.4 CALM 0 0 0 0 - - 0.0
23/01:30am 8.3 7.8 7.7 96 0.3 CALM 0 4 0 2 - - 0.0
23/01:00am 8.3 7.7 7.5 95 0.4 CALM 0 0 0 0 - - 0.0
23/12:30am 8.2 7.6 7.4 95 0.4 CALM 0 0 0 0 - - 0.0
23/12:00am 8.3 7.8 7.7 96 0.3 CALM 0 0 0 0 - - 0.0
 
Date/Time
EST
Temp
°C
App
Temp
°C
Dew
Point
°C
Rel
Hum
%
Delta-T
°C
Wind Press
QNH
hPa
Press
MSL
hPa
Rain since
9am
mm
Dir  Spd
km/h
Gust
km/h
Spd
kts
Gust
kts
22/11:30pm 8.4 7.5 7.8 96 0.3 S 2 7 1 4 - - 0.0
22/11:00pm 8.2 7.2 7.4 95 0.4 N 2 7 1 4 - - 0.0
22/10:30pm 8.3 7.7 7.5 95 0.4 CALM 0 0 0 0 - - 0.0
22/10:00pm 8.1 6.7 7.3 95 0.4 S 4 7 2 4 - - 0.0
22/09:30pm 7.9 7.2 7.0 94 0.4 CALM 0 0 0 0 - - 0.0
22/09:00pm 7.9 6.1 7.0 94 0.4 ENE 6 7 3 4 - - 0.0
22/08:30pm 7.7 6.9 6.6 93 0.5 CALM 0 0 0 0 - - 0.0
22/08:00pm 7.8 5.9 6.9 94 0.4 W 6 9 3 5 - - 0.0
22/07:30pm 8.6 6.6 7.3 91 0.6 WSW 7 9 4 5 - - 0.0
22/07:00pm 8.9 7.1 7.2 89 0.8 NW 6 11 3 6 - - 0.0
22/06:30pm 10.1 9.4 8.5 90 0.8 WNW 2 7 1 4 - - 0.0
22/06:00pm 11.2 9.7 9.0 86 1.1 NW 7 9 4 5 - - 0.0
22/05:30pm 12.1 10.6 9.1 82 1.5 NNW 7 11 4 6 - - 0.0
22/05:00pm 13.2 11.3 8.9 75 2.2 NW 9 13 5 7 - - 0.0
22/04:30pm 14.7 13.1 10.1 74 2.4 NNW 9 11 5 6 - - 0.0
22/04:00pm 16.9 15.9 11.0 68 3.2 N 7 11 4 6 - - 0.0
22/03:30pm 17.4 18.0 12.0 70 3.0 CALM 0 0 0 0 - - 0.0
22/03:00pm 18.4 17.4 10.9 61 4.1 S 7 9 4 5 - - 0.0
22/02:30pm 19.7 18.5 10.3 54 5.1 SE 7 9 4 5 - - 0.0
22/02:00pm 19.3 18.0 9.8 54 5.1 SE 7 9 4 5 - - 0.0
22/01:30pm 19.0 17.9 9.9 55 4.8 W 6 9 3 5 - - 0.0

Other Formats:

Comma delimited format used in spreadsheet applications
http://www.bom.gov.au/fwo/IDT60801/IDT60801.94964.axf

JavaScript Object Notation format (JSON) in row-major order
http://www.bom.gov.au/fwo/IDT60801/IDT60801.94964.json